Time;durP1;ratioP1;P1;durP2;ratioP2;P2;SDS_P1;SDS_P2;PMS_P1;PMS_P2;Temp;Humidity;BMP_temperature;BMP_pressure;BME280_temperature;BME280_humidity;BME280_pressure;Samples;Min_cycle;Max_cycle;Signal;HPM_P1;HPM_P2
2021/10/06 00:02:04;;;;;;;1.20;0.40;;;22.90;54.30;;;;;;5060496;28;20489;-75
2021/10/06 00:04:29;;;;;;;1.37;0.47;;;22.90;54.20;;;;;;5062004;28;20380;-74
2021/10/06 00:06:55;;;;;;;1.40;0.50;;;22.90;54.30;;;;;;5052382;28;20388;-74
2021/10/06 00:09:21;;;;;;;0.53;0.33;;;22.80;54.30;;;;;;5064435;28;20415;-74
2021/10/06 00:11:46;;;;;;;2.00;0.47;;;22.80;54.40;;;;;;5065684;28;20470;-74
2021/10/06 00:14:12;;;;;;;0.90;0.50;;;22.80;54.50;;;;;;5055741;28;20786;-74
2021/10/06 00:16:38;;;;;;;1.20;0.40;;;22.80;54.30;;;;;;5065600;28;20399;-74
2021/10/06 00:19:04;;;;;;;0.90;0.30;;;22.90;54.30;;;;;;5065847;28;20400;-74
2021/10/06 00:21:30;;;;;;;1.10;0.30;;;22.80;54.10;;;;;;5065603;28;20387;-74
2021/10/06 00:23:56;;;;;;;1.40;0.37;;;22.80;54.20;;;;;;5065342;28;20531;-74
2021/10/06 00:26:22;;;;;;;0.85;0.28;;;22.80;54.20;;;;;;5065490;28;20422;-75
2021/10/06 00:28:47;;;;;;;0.70;0.30;;;22.80;54.10;;;;;;5052526;28;20406;-74
2021/10/06 00:31:13;;;;;;;1.08;0.32;;;22.80;54.20;;;;;;5057506;28;20427;-75
2021/10/06 00:33:39;;;;;;;1.07;0.30;;;22.80;54.00;;;;;;5065515;28;20428;-75
2021/10/06 00:36:04;;;;;;;0.85;0.30;;;22.80;54.00;;;;;;5064945;28;20402;-74
2021/10/06 00:38:30;;;;;;;1.10;0.30;;;22.80;54.10;;;;;;5065307;28;20469;-74
2021/10/06 00:40:56;;;;;;;0.60;0.30;;;22.80;54.10;;;;;;5059891;28;20786;-75
2021/10/06 00:43:22;;;;;;;1.13;0.50;;;22.70;54.00;;;;;;5055126;28;20395;-75
2021/10/06 00:45:48;;;;;;;1.10;0.40;;;22.80;54.10;;;;;;5064723;28;20379;-75
2021/10/06 00:48:14;;;;;;;0.80;0.40;;;22.80;54.00;;;;;;5063845;28;21015;-74
2021/10/06 00:50:40;;;;;;;0.73;0.30;;;22.80;53.90;;;;;;5053187;28;20384;-74
2021/10/06 00:53:07;;;;;;;1.50;0.50;;;22.80;54.00;;;;;;5054117;28;20400;-74
2021/10/06 00:55:33;;;;;;;1.33;0.50;;;22.70;54.00;;;;;;5064907;28;20394;-74
2021/10/06 00:57:59;;;;;;;0.70;0.40;;;22.70;54.00;;;;;;5056501;28;20692;-75
2021/10/06 01:00:24;;;;;;;0.65;0.20;;;22.70;54.10;;;;;;5053088;28;21392;-74
2021/10/06 01:02:50;;;;;;;0.50;0.30;;;22.80;54.00;;;;;;5064814;28;20461;-74
2021/10/06 01:05:17;;;;;;;1.33;0.52;;;22.80;54.60;;;;;;5064712;28;20387;-74
2021/10/06 01:07:43;;;;;;;1.05;0.30;;;22.80;54.00;;;;;;5054402;28;20888;-74
2021/10/06 01:10:10;;;;;;;0.80;0.30;;;22.70;53.90;;;;;;5064266;28;20411;-73
2021/10/06 01:12:37;;;;;;;0.85;0.40;;;22.70;54.00;;;;;;5064713;28;20429;-74
2021/10/06 01:15:07;;;;;;;0.60;0.40;;;22.70;54.10;;;;;;5064546;28;20740;-74
2021/10/06 01:17:33;;;;;;;0.70;0.32;;;22.80;54.00;;;;;;5096620;28;20423;-74
2021/10/06 01:19:59;;;;;;;0.70;0.30;;;22.80;53.90;;;;;;5050889;28;20843;-74
2021/10/06 01:22:24;;;;;;;0.75;0.38;;;22.80;54.50;;;;;;5058833;28;20384;-74
2021/10/06 01:24:50;;;;;;;0.50;0.20;;;22.70;53.90;;;;;;5064590;28;20384;-74
2021/10/06 01:27:16;;;;;;;0.70;0.20;;;22.70;54.00;;;;;;5052259;28;20764;-73
2021/10/06 01:29:42;;;;;;;0.50;0.30;;;22.70;54.10;;;;;;5064661;28;20386;-75
2021/10/06 01:32:16;;;;;;;0.50;0.30;;;22.70;54.00;;;;;;5063878;28;20422;-74
2021/10/06 01:34:42;;;;;;;0.47;0.32;;;22.70;53.90;;;;;;5052931;28;20395;-74
2021/10/06 01:37:08;;;;;;;0.70;0.30;;;22.70;53.90;;;;;;5064124;28;20434;-74
2021/10/06 01:39:34;;;;;;;1.08;0.40;;;22.70;53.80;;;;;;5064346;28;20392;-74
2021/10/06 01:42:01;;;;;;;0.63;0.40;;;22.70;54.00;;;;;;5063855;28;20404;-74
2021/10/06 01:44:27;;;;;;;1.38;0.40;;;22.60;54.20;;;;;;5064045;28;20392;-74
2021/10/06 01:46:53;;;;;;;0.40;0.20;;;22.70;54.00;;;;;;5051872;28;20395;-74
2021/10/06 01:49:19;;;;;;;1.30;0.20;;;22.70;53.70;;;;;;5064001;28;20440;-74
2021/10/06 01:51:45;;;;;;;0.68;0.30;;;22.70;53.80;;;;;;5064212;28;20922;-74
2021/10/06 01:54:11;;;;;;;0.95;0.28;;;22.70;53.80;;;;;;5063598;28;20402;-74
2021/10/06 01:56:37;;;;;;;0.55;0.30;;;22.70;53.90;;;;;;5063774;28;20791;-74
2021/10/06 01:59:04;;;;;;;0.90;0.30;;;22.60;53.90;;;;;;5064079;28;20391;-74
2021/10/06 02:01:30;;;;;;;1.00;0.20;;;22.70;54.00;;;;;;5063677;28;20402;-74
2021/10/06 02:03:55;;;;;;;0.93;0.30;;;22.70;53.70;;;;;;5053450;28;20403;-75
2021/10/06 02:06:22;;;;;;;0.30;0.10;;;22.70;53.80;;;;;;5055188;28;20842;-74
2021/10/06 02:08:48;;;;;;;0.43;0.20;;;22.70;53.80;;;;;;5059413;28;21017;-74
2021/10/06 02:11:14;;;;;;;0.63;0.20;;;22.60;53.90;;;;;;5062527;28;20470;-74
2021/10/06 02:13:40;;;;;;;0.73;0.28;;;22.60;53.90;;;;;;5063516;28;20565;-75
2021/10/06 02:16:06;;;;;;;0.88;0.30;;;22.60;54.10;;;;;;5063276;28;21096;-75
2021/10/06 02:18:31;;;;;;;0.68;0.25;;;22.70;53.90;;;;;;5052466;28;20420;-75
2021/10/06 02:20:57;;;;;;;0.67;0.30;;;22.70;53.80;;;;;;5055726;28;20391;-75
2021/10/06 02:23:23;;;;;;;0.50;0.20;;;22.70;53.70;;;;;;5063019;28;20392;-75
2021/10/06 02:25:49;;;;;;;0.93;0.37;;;22.60;53.80;;;;;;5052187;28;20771;-74
2021/10/06 02:28:14;;;;;;;0.52;0.30;;;22.60;53.80;;;;;;5061810;28;20482;-75
2021/10/06 02:30:40;;;;;;;0.47;0.23;;;22.60;54.00;;;;;;5054243;28;20906;-75
2021/10/06 02:33:06;;;;;;;1.00;0.30;;;22.60;53.80;;;;;;5062040;28;20400;-75
2021/10/06 02:35:32;;;;;;;1.07;0.30;;;22.70;53.70;;;;;;5063120;28;20392;-75
2021/10/06 02:37:57;;;;;;;1.25;0.35;;;22.70;53.70;;;;;;5062907;28;20459;-74
2021/10/06 02:40:23;;;;;;;0.70;0.20;;;22.60;53.70;;;;;;5062866;28;20395;-74
2021/10/06 02:42:50;;;;;;;0.80;0.30;;;22.60;53.80;;;;;;5063038;28;20391;-74
2021/10/06 02:45:18;;;;;;;0.50;0.22;;;22.60;54.20;;;;;;5053024;28;20388;-74
2021/10/06 02:47:45;;;;;;;0.68;0.20;;;22.60;53.90;;;;;;5061490;28;20396;-74
2021/10/06 02:50:14;;;;;;;0.70;0.30;;;22.70;53.80;;;;;;5052877;28;20392;-74
2021/10/06 02:52:39;;;;;;;1.00;0.20;;;22.70;53.70;;;;;;5062834;28;20994;-75
2021/10/06 02:55:06;;;;;;;0.70;0.20;;;22.60;53.70;;;;;;5052097;28;20434;-75
2021/10/06 02:57:33;;;;;;;1.00;0.30;;;22.60;53.90;;;;;;5062658;28;20530;-74
2021/10/06 02:59:59;;;;;;;0.43;0.20;;;22.50;54.10;;;;;;5063052;28;20395;-74
2021/10/06 03:02:24;;;;;;;0.60;0.20;;;22.60;53.90;;;;;;5062082;28;20392;-74
2021/10/06 03:04:50;;;;;;;0.90;0.20;;;22.60;53.60;;;;;;5061370;28;20399;-74
2021/10/06 03:07:16;;;;;;;0.97;0.30;;;22.60;54.30;;;;;;5061038;28;20404;-74
2021/10/06 03:09:41;;;;;;;0.52;0.20;;;22.60;53.50;;;;;;5062485;28;20403;-75
2021/10/06 03:12:09;;;;;;;1.83;0.40;;;22.60;53.90;;;;;;5062903;28;20431;-74
2021/10/06 03:14:34;;;;;;;2.33;0.50;;;22.60;54.30;;;;;;5050227;28;20776;-75
2021/10/06 03:17:00;;;;;;;7.30;0.88;;;22.70;55.20;;;;;;5062465;28;20415;-75
2021/10/06 03:19:25;;;;;;;6.83;0.60;;;22.80;55.60;;;;;;5062205;28;20383;-75
2021/10/06 03:21:51;;;;;;;14.57;0.77;;;22.90;54.50;;;;;;5062597;28;20384;-73
2021/10/06 03:24:17;;;;;;;7.87;0.60;;;22.90;54.90;;;;;;5062039;28;20376;-73
2021/10/06 03:26:43;;;;;;;5.68;0.68;;;22.90;54.90;;;;;;5062485;28;20929;-73
2021/10/06 03:29:09;;;;;;;4.57;0.53;;;22.80;54.90;;;;;;5052403;28;20387;-73
2021/10/06 03:31:34;;;;;;;3.42;0.50;;;22.80;55.00;;;;;;5051410;28;20392;-73
2021/10/06 03:34:00;;;;;;;6.90;0.70;;;22.90;55.10;;;;;;5061571;28;20414;-73
2021/10/06 03:36:28;;;;;;;4.55;0.60;;;23.00;55.20;;;;;;5061900;28;20392;-73
2021/10/06 03:38:54;;;;;;;7.82;0.70;;;23.00;54.80;;;;;;5053455;28;20388;-73
2021/10/06 03:41:20;;;;;;;4.55;0.70;;;23.00;55.00;;;;;;5060133;28;20384;-72
2021/10/06 03:43:45;;;;;;;4.53;0.73;;;23.00;55.80;;;;;;5050423;28;20479;-73
2021/10/06 03:46:11;;;;;;;5.63;0.60;;;23.00;55.60;;;;;;5061256;28;20475;-73
2021/10/06 03:48:37;;;;;;;6.70;1.00;;;23.10;55.80;;;;;;5062273;28;20445;-73
2021/10/06 03:51:03;;;;;;;5.18;0.60;;;23.20;55.50;;;;;;5062493;28;20405;-73
2021/10/06 03:53:29;;;;;;;5.75;0.50;;;23.10;55.10;;;;;;5062692;28;20404;-74
2021/10/06 03:55:54;;;;;;;8.93;0.90;;;23.10;54.80;;;;;;5062043;28;20399;-74
2021/10/06 03:58:20;;;;;;;3.60;0.70;;;23.00;54.80;;;;;;5061358;28;20458;-74
2021/10/06 04:00:46;;;;;;;9.47;1.10;;;23.00;55.30;;;;;;5062292;28;20407;-73
2021/10/06 04:03:12;;;;;;;10.90;1.10;;;23.10;55.10;;;;;;5063154;28;20748;-74
2021/10/06 04:05:39;;;;;;;8.45;0.80;;;23.20;55.00;;;;;;5061897;28;20384;-74
2021/10/06 04:08:06;;;;;;;4.55;0.60;;;23.20;54.60;;;;;;5061575;28;20415;-74
2021/10/06 04:10:32;;;;;;;7.22;0.82;;;23.10;54.20;;;;;;5061835;28;20432;-73
2021/10/06 04:12:58;;;;;;;3.63;0.57;;;23.00;53.30;;;;;;5062035;28;20482;-73
2021/10/06 04:15:24;;;;;;;10.50;0.77;;;22.90;54.70;;;;;;5061804;28;21082;-74
2021/10/06 04:17:49;;;;;;;3.40;0.52;;;23.00;54.90;;;;;;5061468;28;20431;-74
2021/10/06 04:20:15;;;;;;;4.90;0.80;;;23.00;55.00;;;;;;5053740;28;20391;-73
2021/10/06 04:22:41;;;;;;;4.30;0.50;;;23.00;54.70;;;;;;5061776;28;20427;-74
2021/10/06 04:25:07;;;;;;;6.00;0.80;;;23.00;54.10;;;;;;5061864;28;20392;-74
2021/10/06 04:27:34;;;;;;;4.57;0.60;;;22.90;54.00;;;;;;5060244;28;20774;-74
2021/10/06 04:30:00;;;;;;;7.15;0.90;;;22.90;54.10;;;;;;5046247;28;20388;-74
2021/10/06 04:32:26;;;;;;;5.25;0.60;;;22.90;54.20;;;;;;5058846;28;21576;-74
2021/10/06 04:34:51;;;;;;;4.60;0.50;;;23.00;54.10;;;;;;5061235;28;20379;-73
2021/10/06 04:37:17;;;;;;;3.42;0.50;;;22.90;53.80;;;;;;5061376;28;20426;-73
2021/10/06 04:39:43;;;;;;;3.15;0.47;;;22.90;53.80;;;;;;5061631;28;20395;-74
2021/10/06 04:42:09;;;;;;;1.80;0.30;;;22.90;53.90;;;;;;5060959;28;20759;-73
2021/10/06 04:44:35;;;;;;;3.40;0.40;;;22.80;53.80;;;;;;5061708;28;20391;-74
2021/10/06 04:47:00;;;;;;;2.43;0.40;;;22.80;54.00;;;;;;5061568;28;20423;-73
2021/10/06 04:49:26;;;;;;;1.83;0.40;;;22.90;53.90;;;;;;5054779;28;20396;-73
2021/10/06 04:51:52;;;;;;;2.73;0.40;;;22.90;53.70;;;;;;5060481;28;20410;-74
2021/10/06 04:54:17;;;;;;;4.95;0.40;;;22.90;53.70;;;;;;5063516;28;20494;-74
2021/10/06 04:56:43;;;;;;;2.33;0.60;;;22.80;53.80;;;;;;5064734;28;20417;-73
2021/10/06 04:59:09;;;;;;;2.65;0.40;;;22.80;53.90;;;;;;5064482;28;20430;-74
2021/10/06 05:01:34;;;;;;;2.00;0.60;;;22.80;53.80;;;;;;5064757;28;20384;-74
2021/10/06 05:04:00;;;;;;;1.85;0.30;;;22.90;53.80;;;;;;5053964;28;20407;-74
2021/10/06 05:06:26;;;;;;;4.07;0.50;;;22.90;53.60;;;;;;5052193;28;20471;-74
2021/10/06 05:08:51;;;;;;;6.05;0.60;;;22.90;53.50;;;;;;5064718;28;20780;-74
2021/10/06 05:11:17;;;;;;;3.45;0.40;;;22.80;53.50;;;;;;5064021;28;20430;-74
2021/10/06 05:13:43;;;;;;;3.10;0.40;;;22.70;53.50;;;;;;5063981;28;20404;-74
2021/10/06 05:16:08;;;;;;;3.05;0.47;;;22.70;53.20;;;;;;5063528;28;20380;-74
2021/10/06 05:18:34;;;;;;;1.98;0.40;;;22.70;53.40;;;;;;5064019;28;20416;-74
2021/10/06 05:21:00;;;;;;;2.97;0.40;;;22.80;53.40;;;;;;5064021;28;20748;-74
2021/10/06 05:23:25;;;;;;;4.20;0.47;;;22.80;53.50;;;;;;5064075;28;20396;-74
2021/10/06 05:25:51;;;;;;;1.92;0.30;;;22.70;53.60;;;;;;5063899;28;20975;-74
2021/10/06 05:28:17;;;;;;;2.73;0.40;;;22.70;53.60;;;;;;5063534;28;21398;-74
2021/10/06 05:30:42;;;;;;;1.77;0.40;;;22.70;53.70;;;;;;5064064;28;20809;-74
2021/10/06 05:33:08;;;;;;;1.13;0.40;;;22.70;53.60;;;;;;5053018;28;20399;-74
2021/10/06 05:35:34;;;;;;;1.25;0.30;;;22.70;53.60;;;;;;5064065;28;20402;-74
2021/10/06 05:38:00;;;;;;;2.28;0.30;;;22.70;53.60;;;;;;5063298;28;20926;-74
2021/10/06 05:40:25;;;;;;;4.17;0.37;;;22.70;53.70;;;;;;5049097;28;20415;-74
2021/10/06 05:42:51;;;;;;;2.15;0.40;;;22.70;53.70;;;;;;5053135;28;20395;-74
2021/10/06 05:45:17;;;;;;;1.03;0.30;;;22.60;53.80;;;;;;5062273;28;20975;-74
2021/10/06 05:47:42;;;;;;;1.30;0.40;;;22.60;53.90;;;;;;5049057;28;20403;-74
2021/10/06 05:50:09;;;;;;;2.70;0.43;;;22.70;53.70;;;;;;5049659;28;20978;-74
2021/10/06 05:52:35;;;;;;;2.15;0.32;;;22.70;53.60;;;;;;5063207;28;20392;-74
2021/10/06 05:55:03;;;;;;;0.63;0.20;;;22.70;53.70;;;;;;5063240;28;20684;-74
2021/10/06 05:57:28;;;;;;;1.80;0.40;;;22.60;53.80;;;;;;5052391;28;20857;-74
2021/10/06 05:59:54;;;;;;;1.90;0.30;;;22.60;53.80;;;;;;5063344;28;20459;-74
2021/10/06 06:02:20;;;;;;;1.60;0.40;;;22.60;53.70;;;;;;5061823;28;20391;-74
2021/10/06 06:04:45;;;;;;;1.30;0.40;;;22.70;53.70;;;;;;5062549;28;20395;-74
2021/10/06 06:07:11;;;;;;;1.30;0.35;;;22.70;53.70;;;;;;5063202;28;20388;-73
2021/10/06 06:09:37;;;;;;;1.20;0.30;;;22.70;53.70;;;;;;5061818;28;20745;-74
2021/10/06 06:12:04;;;;;;;1.55;0.40;;;22.60;53.80;;;;;;5062990;28;20531;-74
2021/10/06 06:14:30;;;;;;;0.70;0.30;;;22.60;53.80;;;;;;5052289;28;20410;-74
2021/10/06 06:16:56;;;;;;;0.90;0.32;;;22.60;53.90;;;;;;5061712;28;20643;-74
2021/10/06 06:19:24;;;;;;;1.42;0.30;;;22.60;53.70;;;;;;5062148;28;20416;-74
2021/10/06 06:21:50;;;;;;;1.45;0.30;;;22.70;53.60;;;;;;5063034;28;20760;-74
2021/10/06 06:24:16;;;;;;;1.10;0.30;;;22.60;53.60;;;;;;5062273;28;20396;-74
2021/10/06 06:26:42;;;;;;;0.82;0.30;;;22.60;53.80;;;;;;5052138;28;20776;-74
2021/10/06 06:29:07;;;;;;;0.82;0.40;;;22.60;53.80;;;;;;5062642;28;21058;-74
2021/10/06 06:31:33;;;;;;;0.80;0.30;;;22.50;53.80;;;;;;5061593;28;20402;-74
2021/10/06 06:33:59;;;;;;;0.77;0.28;;;22.60;53.80;;;;;;5052891;28;20387;-74
2021/10/06 06:36:25;;;;;;;0.90;0.20;;;22.60;53.60;;;;;;5060605;28;20453;-73
2021/10/06 06:38:50;;;;;;;0.95;0.20;;;22.60;53.70;;;;;;5062665;28;20433;-74
2021/10/06 06:41:16;;;;;;;0.93;0.30;;;22.60;53.80;;;;;;5061218;28;20399;-74
2021/10/06 06:43:41;;;;;;;0.77;0.30;;;22.50;53.80;;;;;;5051634;28;20908;-74
2021/10/06 06:46:07;;;;;;;1.00;0.40;;;22.50;53.90;;;;;;5062049;28;20445;-74
2021/10/06 06:48:33;;;;;;;2.20;0.50;;;22.50;53.90;;;;;;5062490;28;20467;-74
2021/10/06 06:50:59;;;;;;;0.70;0.30;;;22.60;53.80;;;;;;5060861;28;20403;-73
2021/10/06 06:53:28;;;;;;;0.82;0.30;;;22.60;53.90;;;;;;5062467;28;20384;-74
2021/10/06 06:55:55;;;;;;;0.80;0.30;;;22.50;53.90;;;;;;5062401;28;20396;-74
2021/10/06 06:58:22;;;;;;;0.70;0.28;;;22.50;54.00;;;;;;5046782;28;20729;-74
2021/10/06 07:00:49;;;;;;;1.05;0.30;;;22.50;53.90;;;;;;5062033;28;20399;-74
2021/10/06 07:03:18;;;;;;;0.80;0.38;;;22.50;53.90;;;;;;5062507;28;20401;-74
2021/10/06 07:05:44;;;;;;;0.70;0.20;;;22.60;53.90;;;;;;5062163;28;20848;-74
2021/10/06 07:08:10;;;;;;;0.77;0.30;;;22.50;53.80;;;;;;5061763;28;20407;-74
2021/10/06 07:10:37;;;;;;;1.07;0.30;;;22.50;53.80;;;;;;5048830;28;20390;-74
2021/10/06 07:13:03;;;;;;;0.70;0.30;;;22.50;53.90;;;;;;5062025;28;20453;-74
2021/10/06 07:15:28;;;;;;;0.75;0.35;;;22.50;53.90;;;;;;5061858;28;20394;-73
2021/10/06 07:17:55;;;;;;;0.70;0.30;;;22.50;54.00;;;;;;5048835;28;20419;-74
2021/10/06 07:20:20;;;;;;;0.90;0.30;;;22.50;53.80;;;;;;5061279;28;20399;-74
2021/10/06 07:22:46;;;;;;;0.60;0.20;;;22.50;53.70;;;;;;5062119;28;20391;-74
2021/10/06 07:25:12;;;;;;;0.68;0.30;;;22.50;53.80;;;;;;5062147;28;20437;-74
2021/10/06 07:27:38;;;;;;;0.50;0.22;;;22.50;53.90;;;;;;5051768;28;20395;-74
2021/10/06 07:30:04;;;;;;;1.10;0.40;;;22.50;53.90;;;;;;5061650;28;20431;-73
2021/10/06 07:32:30;;;;;;;0.93;0.32;;;22.50;53.90;;;;;;5061409;28;20407;-74
2021/10/06 07:34:56;;;;;;;0.63;0.20;;;22.50;53.90;;;;;;5060591;28;20729;-74
2021/10/06 07:37:22;;;;;;;1.25;0.40;;;22.50;53.80;;;;;;5061535;28;20933;-73
2021/10/06 07:39:48;;;;;;;0.88;0.30;;;22.50;53.80;;;;;;5047011;28;20388;-73
2021/10/06 07:42:15;;;;;;;0.60;0.20;;;22.50;53.80;;;;;;5061464;28;20462;-74
2021/10/06 07:44:42;;;;;;;0.60;0.20;;;22.50;53.80;;;;;;5062000;28;20391;-73
2021/10/06 07:47:07;;;;;;;1.10;0.30;;;22.40;53.60;;;;;;5060437;28;20392;-74
2021/10/06 07:49:34;;;;;;;0.70;0.30;;;22.50;53.70;;;;;;5053363;28;20392;-74
2021/10/06 07:52:00;;;;;;;0.60;0.30;;;22.50;53.60;;;;;;5053637;28;20465;-73
2021/10/06 07:54:26;;;;;;;0.77;0.27;;;22.50;53.60;;;;;;5061016;28;20459;-74
2021/10/06 07:56:51;;;;;;;0.50;0.20;;;22.50;53.70;;;;;;5061289;28;20434;-74
2021/10/06 07:59:17;;;;;;;0.47;0.20;;;22.40;53.70;;;;;;5061761;28;20868;-74
2021/10/06 08:01:43;;;;;;;0.90;0.20;;;22.40;53.50;;;;;;5044715;28;20431;-74
2021/10/06 08:04:09;;;;;;;0.60;0.20;;;22.40;53.50;;;;;;5060048;28;20499;-74
2021/10/06 08:06:35;;;;;;;0.65;0.20;;;22.50;53.50;;;;;;5060749;28;20843;-73
2021/10/06 08:09:01;;;;;;;0.30;0.10;;;22.50;53.30;;;;;;5046593;28;20426;-74
2021/10/06 08:11:26;;;;;;;0.50;0.20;;;22.40;53.50;;;;;;5061328;28;20394;-74
2021/10/06 08:13:52;;;;;;;0.50;0.20;;;22.40;53.60;;;;;;5060130;28;20404;-73
2021/10/06 08:16:18;;;;;;;0.50;0.20;;;22.40;53.70;;;;;;5061115;28;20446;-74
2021/10/06 08:18:44;;;;;;;0.50;0.20;;;22.40;53.60;;;;;;5059728;28;20453;-74
2021/10/06 08:21:09;;;;;;;1.10;0.30;;;22.50;53.60;;;;;;5061061;28;20463;-74
2021/10/06 08:23:35;;;;;;;0.55;0.22;;;22.50;53.50;;;;;;5061352;28;20396;-74
2021/10/06 08:26:02;;;;;;;0.63;0.17;;;22.40;53.50;;;;;;5061361;28;20384;-74
2021/10/06 08:28:28;;;;;;;0.90;0.20;;;22.40;53.60;;;;;;5062645;28;20395;-73
2021/10/06 08:30:54;;;;;;;1.08;0.20;;;22.40;53.40;;;;;;5065175;28;20767;-74
2021/10/06 08:33:20;;;;;;;0.22;0.10;;;22.30;53.50;;;;;;5057158;28;20478;-74
2021/10/06 08:35:46;;;;;;;0.60;0.30;;;22.40;53.50;;;;;;5065067;28;20881;-74
2021/10/06 08:38:11;;;;;;;1.00;0.20;;;22.40;53.30;;;;;;5064141;28;20419;-73
2021/10/06 08:40:38;;;;;;;0.90;0.30;;;22.40;53.20;;;;;;5064773;28;20474;-74
2021/10/06 08:43:06;;;;;;;0.70;0.10;;;22.40;53.40;;;;;;5065003;28;20806;-74
2021/10/06 08:45:31;;;;;;;0.45;0.20;;;22.40;53.20;;;;;;5064892;28;20380;-74
2021/10/06 08:48:00;;;;;;;0.52;0.30;;;22.30;53.40;;;;;;5064780;28;20399;-74
2021/10/06 08:50:25;;;;;;;0.55;0.30;;;22.40;53.20;;;;;;5064615;28;20384;-74
2021/10/06 08:52:51;;;;;;;0.87;0.30;;;22.40;53.00;;;;;;5064870;28;20396;-73
2021/10/06 08:55:19;;;;;;;0.63;0.20;;;22.40;53.00;;;;;;5064376;28;20880;-74
2021/10/06 08:57:45;;;;;;;0.70;0.20;;;22.40;53.30;;;;;;5064608;28;20915;-74
2021/10/06 09:00:12;;;;;;;1.63;0.20;;;22.30;53.30;;;;;;5064150;28;20465;-74
2021/10/06 09:02:40;;;;;;;0.20;0.10;;;22.30;53.30;;;;;;5064391;28;20437;-73
2021/10/06 09:05:07;;;;;;;0.55;0.10;;;22.40;53.40;;;;;;5051278;28;20392;-73
2021/10/06 09:07:56;;;;;;;0.60;0.20;;;22.40;53.30;;;;;;5064633;28;20852;-73
2021/10/06 09:10:22;;;;;;;1.00;0.10;;;22.40;53.20;;;;;;5045777;28;20434;-74
2021/10/06 09:13:02;;;;;;;1.23;0.20;;;22.40;53.10;;;;;;5064048;28;20387;-73
2021/10/06 09:15:52;;;;;;;1.60;0.10;;;22.40;52.90;;;;;;5064149;28;20380;-73
2021/10/06 09:18:23;;;;;;;0.40;0.10;;;22.30;52.90;;;;;;5063513;28;20430;-74
2021/10/06 09:20:50;;;;;;;0.20;0.10;;;22.40;52.90;;;;;;5064040;28;20863;-74
2021/10/06 09:23:21;;;;;;;0.87;0.17;;;22.40;52.70;;;;;;5079321;28;20430;-74
2021/10/06 09:25:51;;;;;;;0.35;0.20;;;22.40;52.80;;;;;;5064036;28;20425;-74
2021/10/06 09:28:21;;;;;;;0.35;0.20;;;22.30;52.70;;;;;;5063771;28;20893;-73
2021/10/06 09:30:52;;;;;;;0.40;0.20;;;22.30;52.90;;;;;;5079352;28;20404;-73
2021/10/06 09:33:17;;;;;;;0.43;0.20;;;22.30;53.00;;;;;;5063781;28;20462;-73
2021/10/06 09:35:43;;;;;;;0.63;0.13;;;22.40;53.00;;;;;;5063989;28;20470;-73
2021/10/06 09:38:08;;;;;;;0.27;0.10;;;22.40;52.90;;;;;;5063325;28;20422;-73
2021/10/06 09:40:34;;;;;;;0.40;0.20;;;22.40;52.70;;;;;;5062672;28;20387;-73
2021/10/06 09:43:02;;;;;;;0.90;0.33;;;22.40;52.90;;;;;;5036339;28;20392;-73
2021/10/06 09:45:29;;;;;;;0.55;0.20;;;22.30;53.00;;;;;;5079145;28;21181;-74
2021/10/06 09:48:04;;;;;;;0.50;0.20;;;22.30;52.90;;;;;;5063740;28;20391;-74
2021/10/06 09:50:34;;;;;;;0.40;0.10;;;22.30;52.90;;;;;;5063086;28;20768;-74
2021/10/06 09:53:08;;;;;;;0.30;0.20;;;22.40;52.90;;;;;;5078962;28;20396;-73
2021/10/06 09:55:36;;;;;;;0.40;0.20;;;22.40;52.90;;;;;;5063551;28;20468;-74
2021/10/06 09:58:02;;;;;;;0.60;0.20;;;22.30;52.80;;;;;;5063205;28;20737;-74
2021/10/06 10:00:28;;;;;;;0.50;0.20;;;22.30;52.70;;;;;;5063044;28;20384;-73
2021/10/06 10:02:54;;;;;;;0.95;0.20;;;22.30;52.70;;;;;;5063469;28;20406;-73
2021/10/06 10:05:20;;;;;;;0.30;0.20;;;22.30;52.70;;;;;;5063175;28;20383;-73
2021/10/06 10:07:46;;;;;;;0.60;0.20;;;22.30;52.60;;;;;;5063683;28;20388;-73
2021/10/06 10:10:12;;;;;;;1.85;0.20;;;22.30;52.70;;;;;;5062591;28;20502;-74
2021/10/06 10:12:38;;;;;;;0.50;0.10;;;22.30;52.70;;;;;;5062790;28;20399;-74
2021/10/06 10:15:05;;;;;;;0.63;0.25;;;22.30;52.60;;;;;;5063312;28;20391;-73
2021/10/06 10:17:31;;;;;;;0.30;0.20;;;22.30;52.70;;;;;;5063033;28;20415;-73
2021/10/06 10:20:00;;;;;;;0.77;0.20;;;22.20;52.90;;;;;;5055128;28;20399;-74
2021/10/06 10:22:30;;;;;;;0.57;0.20;;;22.30;52.80;;;;;;5062498;28;20875;-74
2021/10/06 10:24:56;;;;;;;0.37;0.23;;;22.30;52.40;;;;;;5046943;28;20489;-73
2021/10/06 10:27:24;;;;;;;0.50;0.20;;;22.30;52.80;;;;;;5062708;28;20457;-73
2021/10/06 10:29:57;;;;;;;0.88;0.20;;;22.30;52.90;;;;;;5062638;28;20395;-74
2021/10/06 10:32:29;;;;;;;1.10;0.17;;;22.30;53.10;;;;;;5047734;28;20396;-75
2021/10/06 10:35:15;;;;;;;0.65;0.10;;;22.30;53.20;;;;;;5062918;28;20388;-74
2021/10/06 10:37:53;;;;;;;0.40;0.20;;;22.40;53.10;;;;;;5047646;28;20854;-73
2021/10/06 10:40:32;;;;;;;1.20;0.20;;;22.30;53.00;;;;;;5052560;28;20842;-73
2021/10/06 10:43:03;;;;;;;0.60;0.13;;;22.30;53.00;;;;;;5062567;28;20391;-73
2021/10/06 10:45:49;;;;;;;0.47;0.20;;;22.30;53.00;;;;;;5062624;28;20391;-73
2021/10/06 10:48:27;;;;;;;0.50;0.10;;;22.20;52.90;;;;;;5062325;28;20910;-74
2021/10/06 10:50:52;;;;;;;0.43;0.20;;;22.30;53.10;;;;;;5059455;28;20388;-73
2021/10/06 10:53:20;;;;;;;0.33;0.20;;;22.30;52.90;;;;;;5062238;28;20402;-73
2021/10/06 10:55:54;;;;;;;0.30;0.13;;;22.30;52.90;;;;;;5061952;28;20384;-74
2021/10/06 10:58:34;;;;;;;0.35;0.10;;;22.30;52.80;;;;;;5052498;28;20423;-73
2021/10/06 11:01:12;;;;;;;0.40;0.10;;;22.30;53.20;;;;;;5062091;28;20415;-73
2021/10/06 11:04:08;;;;;;;0.40;0.20;;;22.30;52.90;;;;;;5062080;28;20388;-74
2021/10/06 11:06:35;;;;;;;0.40;0.20;;;22.30;52.90;;;;;;5061525;28;20399;-74
2021/10/06 11:09:01;;;;;;;0.43;0.20;;;22.30;52.80;;;;;;5062099;28;20886;-73
2021/10/06 11:11:30;;;;;;;0.40;0.10;;;22.30;53.00;;;;;;5062075;28;20388;-73
2021/10/06 11:13:55;;;;;;;0.50;0.20;;;22.30;53.30;;;;;;5051014;28;20729;-74
2021/10/06 11:16:59;;;;;;;0.98;0.20;;;22.30;53.40;;;;;;5061638;28;20926;-74
2021/10/06 11:19:45;;;;;;;0.55;0.20;;;22.30;53.40;;;;;;5061746;28;20399;-74
2021/10/06 11:22:23;;;;;;;0.60;0.30;;;22.30;53.40;;;;;;5061532;28;20388;-74
2021/10/06 11:24:49;;;;;;;0.68;0.20;;;22.30;53.40;;;;;;5061764;28;20395;-74
2021/10/06 11:27:15;;;;;;;1.13;0.32;;;22.30;53.40;;;;;;5061485;28;20384;-73
2021/10/06 11:29:42;;;;;;;0.35;0.20;;;22.30;53.50;;;;;;5061927;28;20541;-73
2021/10/06 11:32:08;;;;;;;1.47;0.20;;;22.30;53.60;;;;;;5062031;28;20465;-74
2021/10/06 11:34:46;;;;;;;0.82;0.20;;;22.30;53.40;;;;;;5043785;28;20844;-74
2021/10/06 11:37:34;;;;;;;1.00;0.20;;;22.30;53.50;;;;;;5061487;28;20816;-73
2021/10/06 11:40:00;;;;;;;0.77;0.30;;;22.40;53.40;;;;;;5051060;28;21506;-74
2021/10/06 11:42:32;;;;;;;1.00;0.20;;;22.30;53.30;;;;;;5051095;28;20399;-74
2021/10/06 11:44:58;;;;;;;0.87;0.30;;;22.30;53.30;;;;;;5062147;28;20399;-74
2021/10/06 11:47:24;;;;;;;1.20;0.30;;;22.30;53.40;;;;;;5050377;28;20386;-74
2021/10/06 11:49:49;;;;;;;1.10;0.30;;;22.30;53.20;;;;;;5061683;28;20391;-73
2021/10/06 11:52:17;;;;;;;1.47;0.30;;;22.30;53.00;;;;;;5046416;28;20402;-73
2021/10/06 11:54:44;;;;;;;1.50;0.50;;;22.30;52.70;;;;;;5061638;28;20421;-73
2021/10/06 11:57:13;;;;;;;2.13;0.43;;;22.30;52.50;;;;;;5062123;28;20461;-74
2021/10/06 11:59:42;;;;;;;1.40;0.50;;;22.30;52.50;;;;;;5062221;28;20387;-74
2021/10/06 12:02:11;;;;;;;1.27;0.47;;;22.30;52.40;;;;;;5062067;28;20440;-73
2021/10/06 12:04:42;;;;;;;1.40;0.30;;;22.30;52.40;;;;;;5065603;28;20530;-73
2021/10/06 12:07:15;;;;;;;1.65;0.50;;;22.30;52.10;;;;;;5074548;28;20381;-73
2021/10/06 12:09:50;;;;;;;1.33;0.50;;;22.30;52.10;;;;;;5066885;28;20488;-73
2021/10/06 12:12:20;;;;;;;1.13;0.50;;;22.30;52.00;;;;;;5059892;28;20403;-73
2021/10/06 12:14:49;;;;;;;2.78;0.60;;;22.30;51.60;;;;;;5052909;28;20399;-73
2021/10/06 12:17:20;;;;;;;3.42;0.63;;;22.30;52.40;;;;;;5057403;28;20474;-73
2021/10/06 12:19:55;;;;;;;3.38;0.50;;;22.40;54.50;;;;;;5065602;28;20440;-73
2021/10/06 12:22:21;;;;;;;2.22;0.40;;;22.50;54.50;;;;;;5056725;28;20445;-73
2021/10/06 12:24:47;;;;;;;2.70;0.50;;;22.60;54.10;;;;;;5064927;28;20431;-73
2021/10/06 12:27:28;;;;;;;1.70;0.57;;;22.60;53.70;;;;;;5065139;28;20423;-74
2021/10/06 12:30:27;;;;;;;1.67;0.50;;;22.50;52.90;;;;;;5066883;28;20514;-74
2021/10/06 12:33:15;;;;;;;2.30;0.60;;;22.50;52.60;;;;;;5027633;28;20496;-74
2021/10/06 12:35:49;;;;;;;2.50;0.55;;;22.50;53.20;;;;;;5065057;28;20394;-73
2021/10/06 12:38:16;;;;;;;3.38;0.68;;;22.60;53.30;;;;;;5053686;28;20419;-73
2021/10/06 12:40:49;;;;;;;1.55;0.50;;;22.70;53.30;;;;;;5064711;28;20482;-73
2021/10/06 12:43:17;;;;;;;1.23;0.50;;;22.70;53.00;;;;;;5097488;28;20888;-73
2021/10/06 12:46:06;;;;;;;1.60;0.70;;;22.60;52.00;;;;;;5065412;28;20467;-74
2021/10/06 12:48:39;;;;;;;2.53;0.50;;;22.60;52.20;;;;;;5064800;28;20483;-73